createdAt,value
2022-09-07T00:00:26.578Z,100723.63
2022-09-07T00:02:53.728Z,100722.72
2022-09-07T00:05:20.916Z,100719.22
2022-09-07T00:07:48.055Z,100717.44
2022-09-07T00:10:15.085Z,100714.75
2022-09-07T00:12:42.327Z,100708.66
2022-09-07T00:15:11.564Z,100711.22
2022-09-07T00:17:39.304Z,100711.09
2022-09-07T00:20:08.679Z,100703.28
2022-09-07T00:22:35.954Z,100705.00
2022-09-07T00:25:03.474Z,100700.66
2022-09-07T00:27:30.798Z,100704.13
2022-09-07T00:29:57.795Z,100699.78
2022-09-07T00:32:24.916Z,100698.84
2022-09-07T00:34:51.922Z,100703.09
2022-09-07T00:37:18.942Z,100697.00
2022-09-07T00:39:45.904Z,100694.34
2022-09-07T00:42:13.016Z,100695.13
2022-09-07T00:44:42.939Z,100692.50
2022-09-07T00:47:15.153Z,100688.13
2022-09-07T00:49:43.554Z,100691.50
2022-09-07T00:52:11.304Z,100696.59
2022-09-07T00:54:42.271Z,100693.00
2022-09-07T00:57:09.506Z,100702.44
2022-09-07T00:59:39.675Z,100699.69
2022-09-07T01:02:06.944Z,100698.78
2022-09-07T01:04:35.017Z,100703.97
2022-09-07T01:07:03.713Z,100699.56
2022-09-07T01:09:31.122Z,100689.13
2022-09-07T01:12:00.235Z,100702.88
2022-09-07T01:14:42.065Z,100693.31
2022-09-07T01:17:30.859Z,100697.63
2022-09-07T01:20:10.502Z,100695.88
2022-09-07T01:23:14.975Z,100696.66
2022-09-07T01:25:53.506Z,100690.53
2022-09-07T01:28:26.611Z,100684.44
2022-09-07T01:31:12.370Z,100681.78
2022-09-07T01:34:20.194Z,100689.44
2022-09-07T01:37:05.316Z,100686.94
2022-09-07T01:40:09.344Z,100691.16
2022-09-07T01:42:51.303Z,100682.53
2022-09-07T01:45:20.084Z,100679.97
2022-09-07T01:47:50.963Z,100669.59
2022-09-07T01:50:26.385Z,100669.50
2022-09-07T01:52:58.383Z,100663.44
2022-09-07T01:55:30.732Z,100662.63
2022-09-07T01:58:16.385Z,100662.75
2022-09-07T02:00:48.044Z,100670.34
2022-09-07T02:03:16.164Z,100672.94
2022-09-07T02:05:51.915Z,100665.06
2022-09-07T02:08:29.019Z,100672.56
2022-09-07T02:11:01.484Z,100665.50
2022-09-07T02:13:33.309Z,100670.56
2022-09-07T02:16:03.501Z,100667.94
2022-09-07T02:18:36.353Z,100667.84
2022-09-07T02:21:04.033Z,100671.19
2022-09-07T02:23:57.002Z,100662.56
2022-09-07T02:26:25.593Z,100659.09
2022-09-07T02:28:52.519Z,100657.38
2022-09-07T02:31:20.112Z,100654.81
2022-09-07T02:33:47.696Z,100655.66
2022-09-07T02:36:16.466Z,100650.47
2022-09-07T02:38:43.342Z,100644.47
2022-09-07T02:41:37.586Z,100648.75
2022-09-07T02:44:26.005Z,100646.16
2022-09-07T02:47:18.243Z,100652.19
2022-09-07T02:49:48.043Z,100648.69
2022-09-07T02:52:44.086Z,100646.94
2022-09-07T02:55:16.715Z,100647.75
2022-09-07T02:58:20.974Z,100641.66
2022-09-07T03:01:13.797Z,100647.66
2022-09-07T03:04:11.653Z,100651.00
2022-09-07T03:06:46.905Z,100648.41
2022-09-07T03:09:20.203Z,100639.69
2022-09-07T03:11:47.764Z,100644.84
2022-09-07T03:14:23.212Z,100644.72
2022-09-07T03:16:51.871Z,100639.53
2022-09-07T03:19:18.879Z,100642.91
2022-09-07T03:21:45.962Z,100636.78
2022-09-07T03:24:12.913Z,100638.41
2022-09-07T03:26:49.054Z,100631.53
2022-09-07T03:29:16.305Z,100628.06
2022-09-07T03:31:43.363Z,100632.28
2022-09-07T03:34:10.693Z,100634.84
2022-09-07T03:36:38.160Z,100631.28
2022-09-07T03:39:07.367Z,100643.25
2022-09-07T03:41:34.754Z,100643.13
2022-09-07T03:44:05.673Z,100643.94
2022-09-07T03:46:33.494Z,100642.22
2022-09-07T03:49:00.556Z,100652.53
2022-09-07T03:51:27.602Z,100653.31
2022-09-07T03:53:54.648Z,100666.28
2022-09-07T03:56:23.514Z,100664.63
2022-09-07T03:58:51.505Z,100665.56
2022-09-07T04:01:23.555Z,100660.38
2022-09-07T04:03:51.211Z,100665.56
2022-09-07T04:06:18.911Z,100665.59
2022-09-07T04:08:46.263Z,100660.56
2022-09-07T04:11:15.540Z,100658.00
2022-09-07T04:13:42.574Z,100659.25
2022-09-07T04:16:21.146Z,100664.00
2022-09-07T04:18:50.372Z,100658.00
2022-09-07T04:21:18.629Z,100664.47
2022-09-07T04:23:45.918Z,100665.38
2022-09-07T04:26:38.693Z,100660.09
2022-09-07T04:29:06.931Z,100654.88
2022-09-07T04:31:35.154Z,100646.84
2022-09-07T04:34:02.886Z,100645.69
2022-09-07T04:36:30.910Z,100636.66
2022-09-07T04:39:03.966Z,100636.22
2022-09-07T04:41:32.562Z,100637.47
2022-09-07T04:44:01.054Z,100633.47
2022-09-07T04:46:33.889Z,100638.03
2022-09-07T04:49:04.333Z,100640.75
2022-09-07T04:51:32.482Z,100636.53
2022-09-07T04:54:01.665Z,100629.59
2022-09-07T04:56:29.192Z,100633.97
2022-09-07T04:58:56.807Z,100630.53
2022-09-07T05:01:25.340Z,100631.34
2022-09-07T05:03:52.561Z,100626.06
2022-09-07T05:06:20.900Z,100630.41
2022-09-07T05:08:50.076Z,100616.63
2022-09-07T05:11:17.761Z,100616.59
2022-09-07T05:13:44.764Z,100606.16
2022-09-07T05:16:17.577Z,100600.03
2022-09-07T05:18:45.437Z,100602.59
2022-09-07T05:21:18.304Z,100612.09
2022-09-07T05:23:45.914Z,100603.44
2022-09-07T05:26:12.880Z,100592.16
2022-09-07T05:28:39.922Z,100602.56
2022-09-07T05:31:19.630Z,100593.00
2022-09-07T05:36:36.064Z,100595.59
2022-09-07T05:39:04.023Z,100596.47
2022-09-07T05:41:31.784Z,100581.72
2022-09-07T05:46:45.876Z,100586.97
2022-09-07T05:49:12.942Z,100585.25
2022-09-07T05:51:39.929Z,100594.81
2022-09-07T05:54:07.171Z,100587.03
2022-09-07T05:56:36.169Z,100588.78
2022-09-07T05:59:29.900Z,100586.19
2022-09-07T06:01:57.016Z,100588.81
2022-09-07T06:04:24.071Z,100587.09
2022-09-07T06:07:18.034Z,100590.56
2022-09-07T06:12:26.100Z,100586.22
2022-09-07T06:14:53.170Z,100589.69
2022-09-07T06:17:20.134Z,100588.78
2022-09-07T06:19:47.136Z,100587.84
2022-09-07T06:22:14.096Z,100593.00
2022-09-07T06:24:41.081Z,100591.22
2022-09-07T06:27:08.020Z,100585.09
2022-09-07T06:29:35.514Z,100586.75
2022-09-07T06:34:50.216Z,100575.34
2022-09-07T06:37:17.203Z,100577.00
2022-09-07T06:39:44.440Z,100566.47
2022-09-07T06:42:11.842Z,100576.91
2022-09-07T06:44:43.484Z,100575.06
2022-09-07T06:47:10.802Z,100580.22
2022-09-07T06:49:37.880Z,100578.34
2022-09-07T06:52:05.330Z,100578.22
2022-09-07T06:57:19.271Z,100578.69
2022-09-07T06:59:46.240Z,100577.66
2022-09-07T07:02:15.082Z,100580.91
2022-09-07T07:04:42.163Z,100586.81
2022-09-07T07:07:13.730Z,100582.38
2022-09-07T07:09:41.775Z,100586.53
2022-09-07T07:12:09.745Z,100575.88
2022-09-07T07:14:39.643Z,100581.78
2022-09-07T07:17:09.761Z,100583.19
2022-09-07T07:19:36.745Z,100586.41
2022-09-07T07:22:29.493Z,100582.69
2022-09-07T07:24:50.833Z,100590.38
2022-09-07T07:27:17.818Z,100586.88
2022-09-07T07:29:45.803Z,100586.69
2022-09-07T07:32:13.043Z,100588.25
2022-09-07T07:34:40.390Z,100592.41
2022-09-07T07:37:07.370Z,100592.19
2022-09-07T07:42:21.990Z,100590.53
2022-09-07T07:44:49.065Z,100588.38
2022-09-07T07:47:16.160Z,100589.91
2022-09-07T07:49:43.161Z,100583.47
2022-09-07T07:54:57.101Z,100574.47
2022-09-07T07:57:24.192Z,100573.25
2022-09-07T07:59:51.171Z,100578.16
2022-09-07T08:02:18.273Z,100582.38
2022-09-07T08:04:45.258Z,100570.91
2022-09-07T08:07:12.350Z,100574.69
2022-09-07T08:09:44.331Z,100573.97
2022-09-07T08:12:12.406Z,100571.59
2022-09-07T08:14:43.301Z,100557.06
2022-09-07T08:17:11.760Z,100564.53
2022-09-07T08:19:39.401Z,100567.69
2022-09-07T08:22:06.766Z,100569.41
2022-09-07T08:24:33.869Z,100559.66
2022-09-07T08:27:01.067Z,100556.94
2022-09-07T08:29:31.323Z,100560.25
2022-09-07T08:32:00.898Z,100562.50
2022-09-07T08:34:27.862Z,100567.34
2022-09-07T08:36:54.980Z,100562.56
2022-09-07T08:39:22.003Z,100569.22
2022-09-07T08:41:58.131Z,100568.13
2022-09-07T08:44:41.791Z,100560.66
2022-09-07T08:47:29.830Z,100562.09
2022-09-07T08:50:21.362Z,100568.22
2022-09-07T08:52:56.808Z,100562.94
2022-09-07T08:55:47.080Z,100562.78
2022-09-07T08:58:47.762Z,100559.91
2022-09-07T09:01:34.260Z,100556.31
2022-09-07T09:04:18.808Z,100557.53
2022-09-07T09:06:59.480Z,100556.22
2022-09-07T09:09:43.740Z,100555.94
2022-09-07T09:12:33.295Z,100553.25
2022-09-07T09:15:16.480Z,100541.66
2022-09-07T09:18:02.153Z,100540.78
2022-09-07T09:20:38.200Z,100534.81
2022-09-07T09:23:12.793Z,100527.53
2022-09-07T09:25:42.993Z,100546.19
2022-09-07T09:28:12.260Z,100541.63
2022-09-07T09:30:39.420Z,100536.97
2022-09-07T09:33:17.008Z,100528.06
2022-09-07T09:35:45.927Z,100520.72
2022-09-07T09:38:34.718Z,100519.53
2022-09-07T09:41:15.278Z,100525.06
2022-09-07T09:43:58.290Z,100510.34
2022-09-07T09:46:33.663Z,100515.56
2022-09-07T09:49:03.828Z,100518.88
2022-09-07T09:54:42.390Z,100500.84
2022-09-07T09:57:38.918Z,100501.50
2022-09-07T10:00:11.721Z,100490.09
2022-09-07T10:05:53.470Z,100483.28
2022-09-07T10:08:32.893Z,100485.38
2022-09-07T10:11:05.780Z,100481.09
2022-09-07T10:13:35.340Z,100482.84
2022-09-07T10:16:05.986Z,100471.69
2022-09-07T10:18:38.792Z,100474.41
2022-09-07T10:21:14.452Z,100479.31
2022-09-07T10:23:41.684Z,100484.44
2022-09-07T10:26:30.359Z,100485.28
2022-09-07T10:29:19.390Z,100487.59
2022-09-07T10:32:04.871Z,100481.75
2022-09-07T10:34:43.911Z,100483.03
2022-09-07T10:37:18.321Z,100484.38
2022-09-07T10:40:18.192Z,100482.88
2022-09-07T10:43:21.089Z,100486.19
2022-09-07T10:45:57.356Z,100483.97
2022-09-07T10:48:56.631Z,100484.75
2022-09-07T10:51:44.570Z,100461.81
2022-09-07T10:54:38.621Z,100486.69
2022-09-07T10:57:05.581Z,100480.53
2022-09-07T11:00:13.515Z,100480.28
2022-09-07T11:03:24.955Z,100466.16
2022-09-07T11:06:09.727Z,100477.06
2022-09-07T11:12:04.879Z,100469.25
2022-09-07T11:14:54.174Z,100469.50
2022-09-07T11:17:24.795Z,100455.84
2022-09-07T11:20:03.944Z,100458.47
2022-09-07T11:22:35.981Z,100455.31
2022-09-07T11:25:31.062Z,100447.94
2022-09-07T11:28:02.399Z,100457.09
2022-09-07T11:30:40.309Z,100460.63
2022-09-07T11:33:26.903Z,100454.81
2022-09-07T11:35:58.784Z,100451.59
2022-09-07T11:38:31.282Z,100451.47
2022-09-07T11:41:35.932Z,100445.84
2022-09-07T11:44:18.882Z,100439.47
2022-09-07T11:46:48.920Z,100450.94
2022-09-07T11:49:20.813Z,100445.91
2022-09-07T11:52:06.471Z,100450.03
2022-09-07T11:54:53.570Z,100449.09
2022-09-07T11:57:42.380Z,100445.44
2022-09-07T12:00:19.502Z,100445.13
2022-09-07T12:03:07.984Z,100445.88
2022-09-07T12:05:45.282Z,100436.19
2022-09-07T12:08:43.602Z,100435.09
2022-09-07T12:11:42.850Z,100423.47
2022-09-07T12:14:15.691Z,100422.94
2022-09-07T12:16:54.980Z,100425.09
2022-09-07T12:19:25.002Z,100425.69
2022-09-07T12:21:52.180Z,100428.47
2022-09-07T12:24:41.096Z,100425.59
2022-09-07T12:27:19.935Z,100421.44
2022-09-07T12:29:47.940Z,100420.47
2022-09-07T12:32:55.447Z,100401.56
2022-09-07T12:35:31.805Z,100413.28
2022-09-07T12:38:00.432Z,100414.94
2022-09-07T12:40:27.571Z,100422.72
2022-09-07T12:43:20.939Z,100412.47
2022-09-07T12:45:52.699Z,100414.03
2022-09-07T12:48:19.621Z,100406.28
2022-09-07T12:51:08.133Z,100401.63
2022-09-07T12:53:35.100Z,100409.72
2022-09-07T12:56:26.662Z,100398.03
2022-09-07T12:59:04.298Z,100407.84
2022-09-07T13:01:41.984Z,100401.19
2022-09-07T13:04:23.105Z,100399.25
2022-09-07T13:07:03.635Z,100402.94
2022-09-07T13:09:38.430Z,100398.16
2022-09-07T13:15:45.111Z,100380.34
2022-09-07T13:18:34.861Z,100395.81
2022-09-07T13:21:08.523Z,100395.31
2022-09-07T13:23:39.960Z,100398.41
2022-09-07T13:26:09.772Z,100396.94
2022-09-07T13:28:56.209Z,100386.41
2022-09-07T13:31:29.007Z,100389.91
2022-09-07T13:33:57.484Z,100388.81
2022-09-07T13:36:51.001Z,100378.28
2022-09-07T13:39:21.263Z,100368.44
2022-09-07T13:41:56.150Z,100385.72
2022-09-07T13:44:33.456Z,100393.31
2022-09-07T13:47:25.478Z,100376.75
2022-09-07T13:49:59.325Z,100379.81
2022-09-07T13:52:37.313Z,100373.09
2022-09-07T13:55:25.959Z,100392.69
2022-09-07T13:58:11.968Z,100371.78
2022-09-07T14:00:51.520Z,100379.59
2022-09-07T14:03:18.795Z,100377.09
2022-09-07T14:05:46.928Z,100380.63
2022-09-07T14:08:28.089Z,100383.28
2022-09-07T14:10:55.360Z,100380.41
2022-09-07T14:13:22.380Z,100371.50
2022-09-07T14:15:50.351Z,100376.84
2022-09-07T14:18:43.990Z,100386.81
2022-09-07T14:21:19.100Z,100382.06
2022-09-07T14:23:50.055Z,100372.97
2022-09-07T14:26:20.659Z,100370.47
2022-09-07T14:28:53.497Z,100371.53
2022-09-07T14:31:22.128Z,100372.31
2022-09-07T14:33:55.736Z,100382.06
2022-09-07T14:36:45.649Z,100374.78
2022-09-07T14:39:16.112Z,100371.88
2022-09-07T14:41:43.950Z,100372.75
2022-09-07T14:44:40.527Z,100373.28
2022-09-07T14:47:33.917Z,100377.72
2022-09-07T14:50:06.783Z,100363.66
2022-09-07T14:52:42.326Z,100367.47
2022-09-07T14:55:32.519Z,100356.84
2022-09-07T14:58:22.960Z,100362.13
2022-09-07T15:03:39.676Z,100364.16
2022-09-07T15:06:08.238Z,100350.69
2022-09-07T15:08:44.822Z,100353.53
2022-09-07T15:14:12.636Z,100357.94
2022-09-07T15:16:44.806Z,100350.09
2022-09-07T15:19:20.705Z,100347.59
2022-09-07T15:21:47.899Z,100342.06
2022-09-07T15:24:16.427Z,100341.25
2022-09-07T15:27:04.489Z,100344.22
2022-09-07T15:29:32.461Z,100341.78
2022-09-07T15:32:04.455Z,100349.78
2022-09-07T15:34:33.245Z,100347.09
2022-09-07T15:37:01.750Z,100345.19
2022-09-07T15:39:30.335Z,100343.38
2022-09-07T15:41:58.889Z,100346.19
2022-09-07T15:44:28.440Z,100363.00
2022-09-07T15:49:47.681Z,100346.56
2022-09-07T15:52:17.426Z,100337.34
2022-09-07T15:54:44.489Z,100345.44
2022-09-07T15:59:58.988Z,100346.38
2022-09-07T16:05:13.216Z,100348.00
2022-09-07T16:10:31.084Z,100359.00
2022-09-07T16:13:01.119Z,100351.41
2022-09-07T16:15:29.207Z,100350.59
2022-09-07T16:17:56.259Z,100349.31
2022-09-07T16:20:23.322Z,100357.28
2022-09-07T16:25:37.748Z,100353.13
2022-09-07T16:28:05.821Z,100349.75
2022-09-07T16:30:33.537Z,100343.81
2022-09-07T16:33:00.705Z,100345.56
2022-09-07T16:35:27.766Z,100352.72
2022-09-07T16:40:42.173Z,100358.22
2022-09-07T16:43:10.030Z,100353.97
2022-09-07T16:48:24.425Z,100359.31
2022-09-07T16:51:00.438Z,100344.69
2022-09-07T16:53:30.600Z,100348.16
2022-09-07T16:56:02.398Z,100355.31
2022-09-07T16:58:38.936Z,100357.13
2022-09-07T17:01:08.010Z,100359.00
2022-09-07T17:03:36.910Z,100356.47
2022-09-07T17:06:05.650Z,100356.47
2022-09-07T17:08:33.897Z,100343.50
2022-09-07T17:11:02.664Z,100353.31
2022-09-07T17:13:31.744Z,100350.00
2022-09-07T17:16:03.809Z,100351.03
2022-09-07T17:21:19.728Z,100352.78
2022-09-07T17:23:54.342Z,100359.09
2022-09-07T17:26:23.672Z,100356.50
2022-09-07T17:29:00.110Z,100354.88
2022-09-07T17:34:23.144Z,100352.44
2022-09-07T17:36:51.239Z,100351.72
2022-09-07T17:39:19.526Z,100352.72
2022-09-07T17:41:48.242Z,100350.13
2022-09-07T17:44:15.730Z,100361.47
2022-09-07T17:46:42.989Z,100354.53
2022-09-07T17:49:14.147Z,100354.69
2022-09-07T17:51:41.478Z,100351.25
2022-09-07T17:54:12.051Z,100355.66
2022-09-07T17:56:40.321Z,100349.56
2022-09-07T18:01:55.540Z,100357.47
2022-09-07T18:04:22.960Z,100362.75
2022-09-07T18:06:50.536Z,100361.03
2022-09-07T18:09:17.968Z,100362.88
2022-09-07T18:11:46.836Z,100351.56
2022-09-07T18:14:15.123Z,100354.25
2022-09-07T18:16:43.922Z,100349.06
2022-09-07T18:19:12.065Z,100355.28
2022-09-07T18:21:42.241Z,100361.41
2022-09-07T18:24:17.217Z,100365.84
2022-09-07T18:26:50.227Z,100359.75
2022-09-07T18:29:33.952Z,100357.09
2022-09-07T18:32:07.772Z,100364.16
2022-09-07T18:34:36.703Z,100358.16
2022-09-07T18:37:03.904Z,100366.97
2022-09-07T18:39:31.171Z,100358.34
2022-09-07T18:41:58.245Z,100353.16
2022-09-07T18:47:23.090Z,100357.75
2022-09-07T18:49:52.062Z,100356.16
2022-09-07T18:55:10.425Z,100365.88
2022-09-07T18:57:38.263Z,100368.56
2022-09-07T19:00:07.203Z,100367.88
2022-09-07T19:02:34.418Z,100369.69
2022-09-07T19:07:49.266Z,100369.09
2022-09-07T19:10:16.953Z,100368.38
2022-09-07T19:12:46.227Z,100363.28
2022-09-07T19:15:14.241Z,100360.75
2022-09-07T19:17:41.489Z,100362.56
2022-09-07T19:20:09.284Z,100357.38
2022-09-07T19:22:36.333Z,100359.19
2022-09-07T19:25:03.924Z,100359.22
2022-09-07T19:27:33.247Z,100360.97
2022-09-07T19:30:00.702Z,100363.59
2022-09-07T19:32:27.999Z,100359.31
2022-09-07T19:34:55.584Z,100365.44
2022-09-07T19:37:25.744Z,100365.47
2022-09-07T19:39:56.365Z,100368.06
2022-09-07T19:42:23.919Z,100373.28
2022-09-07T19:44:51.709Z,100368.06
2022-09-07T19:47:19.120Z,100375.88
2022-09-07T19:49:46.306Z,100373.31
2022-09-07T19:52:13.443Z,100369.84
2022-09-07T19:54:40.712Z,100374.25
2022-09-07T19:57:07.992Z,100376.91
2022-09-07T19:59:35.048Z,100381.25
2022-09-07T20:02:02.163Z,100372.59
2022-09-07T20:04:29.484Z,100371.78
2022-09-07T20:06:56.825Z,100374.38
2022-09-07T20:09:24.973Z,100377.81
2022-09-07T20:11:52.140Z,100377.84
2022-09-07T20:14:20.219Z,100381.34
2022-09-07T20:16:47.551Z,100375.28
2022-09-07T20:19:15.924Z,100372.66
2022-09-07T20:21:43.213Z,100384.00
2022-09-07T20:24:14.847Z,100380.53
2022-09-07T20:26:42.342Z,100389.22
2022-09-07T20:31:58.823Z,100386.63
2022-09-07T20:34:27.843Z,100396.16
2022-09-07T20:36:55.418Z,100394.47
2022-09-07T20:39:23.432Z,100406.63
2022-09-07T20:41:51.019Z,100397.94
2022-09-07T20:44:19.869Z,100404.88
2022-09-07T20:46:47.226Z,100402.28
2022-09-07T20:49:15.789Z,100392.75
2022-09-07T20:51:43.596Z,100400.56
2022-09-07T20:54:11.426Z,100399.69
2022-09-07T20:56:38.623Z,100404.03
2022-09-07T20:59:06.871Z,100398.84
2022-09-07T21:01:35.380Z,100397.13
2022-09-07T21:04:02.827Z,100400.59
2022-09-07T21:06:31.703Z,100400.59
2022-09-07T21:08:59.267Z,100399.72
2022-09-07T21:11:28.366Z,100396.25
2022-09-07T21:14:06.862Z,100394.53
2022-09-07T21:16:35.181Z,100393.66
2022-09-07T21:19:03.750Z,100391.91
2022-09-07T21:21:38.620Z,100389.31
2022-09-07T21:24:07.651Z,100393.66
2022-09-07T21:26:35.084Z,100395.38
2022-09-07T21:29:05.132Z,100393.66
2022-09-07T21:31:33.871Z,100387.59
2022-09-07T21:34:02.413Z,100396.25
2022-09-07T21:36:29.874Z,100390.16
2022-09-07T21:38:57.368Z,100394.50
2022-09-07T21:41:25.712Z,100391.00
2022-09-07T21:43:57.325Z,100393.63
2022-09-07T21:46:25.474Z,100400.53
2022-09-07T21:48:52.784Z,100397.94
2022-09-07T21:51:20.068Z,100399.66
2022-09-07T21:53:52.446Z,100392.72
2022-09-07T21:56:19.961Z,100390.13
2022-09-07T21:58:46.910Z,100390.13
2022-09-07T22:01:19.131Z,100396.16
2022-09-07T22:03:48.286Z,100398.75
2022-09-07T22:06:15.566Z,100390.09
2022-09-07T22:08:42.967Z,100396.19
2022-09-07T22:11:12.785Z,100392.72
2022-09-07T22:13:40.045Z,100385.81
2022-09-07T22:16:07.726Z,100388.38
2022-09-07T22:18:36.984Z,100383.16
2022-09-07T22:21:06.925Z,100384.03
2022-09-07T22:23:35.513Z,100377.97
2022-09-07T22:26:02.753Z,100389.19
2022-09-07T22:28:31.024Z,100383.94
2022-09-07T22:31:09.297Z,100384.78
2022-09-07T22:33:36.683Z,100380.44
2022-09-07T22:36:23.641Z,100381.28
2022-09-07T22:38:53.506Z,100371.75
2022-09-07T22:41:22.611Z,100375.19
2022-09-07T22:43:51.142Z,100364.75
2022-09-07T22:46:19.910Z,100362.13
2022-09-07T22:48:47.561Z,100367.31
2022-09-07T22:51:15.561Z,100368.25
2022-09-07T22:53:43.943Z,100366.56
2022-09-07T22:56:16.633Z,100368.28
2022-09-07T22:58:57.284Z,100370.03
2022-09-07T23:01:25.424Z,100370.91
2022-09-07T23:03:53.241Z,100374.38
2022-09-07T23:06:22.666Z,100371.78
2022-09-07T23:08:50.428Z,100365.72
2022-09-07T23:11:17.805Z,100373.50
2022-09-07T23:13:45.064Z,100372.69
2022-09-07T23:16:12.442Z,100377.88
2022-09-07T23:18:40.948Z,100370.94
2022-09-07T23:21:08.512Z,100372.69
2022-09-07T23:23:35.646Z,100377.06
2022-09-07T23:26:03.596Z,100375.34
2022-09-07T23:28:31.027Z,100371.91
2022-09-07T23:30:58.380Z,100371.03
2022-09-07T23:33:26.309Z,100377.06
2022-09-07T23:35:57.524Z,100370.16
2022-09-07T23:38:25.543Z,100372.78
2022-09-07T23:40:52.951Z,100371.91
2022-09-07T23:43:20.016Z,100368.44
2022-09-07T23:45:46.964Z,100371.03
2022-09-07T23:48:14.103Z,100358.03
2022-09-07T23:50:41.301Z,100360.63
2022-09-07T23:53:08.522Z,100357.06
2022-09-07T23:55:35.718Z,100359.59
2022-09-07T23:58:02.944Z,100352.66
